createdAt,value
2019-04-05T00:00:03.872Z,57.70
2019-04-05T00:02:36.106Z,55.17
2019-04-05T00:05:07.560Z,58.50
2019-04-05T00:07:40.573Z,54.13
2019-04-05T00:10:11.493Z,55.40
2019-04-05T00:12:42.028Z,56.10
2019-04-05T00:15:15.611Z,53.00
2019-04-05T00:17:45.494Z,53.53
2019-04-05T00:20:16.747Z,58.37
2019-04-05T00:23:04.996Z,54.97
2019-04-05T00:25:36.429Z,59.00
2019-04-05T00:28:06.986Z,61.07
2019-04-05T00:30:37.643Z,62.30
2019-04-05T00:33:08.405Z,58.27
2019-04-05T00:35:40.379Z,56.47
2019-04-05T00:38:11.331Z,57.40
2019-04-05T00:40:42.079Z,54.97
2019-04-05T00:43:12.775Z,55.63
2019-04-05T00:45:43.548Z,62.17
2019-04-05T00:48:20.183Z,61.37
2019-04-05T00:50:50.763Z,59.93
2019-04-05T00:53:21.587Z,54.97
2019-04-05T00:55:52.182Z,55.03
2019-04-05T00:58:22.867Z,55.83
2019-04-05T01:00:55.847Z,56.53
2019-04-05T01:03:26.486Z,59.60
2019-04-05T01:05:56.979Z,60.40
2019-04-05T01:08:27.625Z,58.73
2019-04-05T01:10:58.375Z,56.47
2019-04-05T01:13:30.644Z,57.13
2019-04-05T01:16:02.913Z,60.93
2019-04-05T01:18:33.593Z,63.87
2019-04-05T01:21:04.563Z,58.17
2019-04-05T01:23:36.497Z,56.00
2019-04-05T01:26:07.659Z,57.60
2019-04-05T01:28:39.747Z,60.50
2019-04-05T01:31:10.503Z,60.03
2019-04-05T01:33:41.337Z,59.27
2019-04-05T01:36:11.950Z,60.97
2019-04-05T01:38:42.719Z,62.33
2019-04-05T01:41:13.424Z,57.77
2019-04-05T01:43:47.129Z,62.93
2019-04-05T01:46:20.075Z,59.27
2019-04-05T01:48:53.215Z,57.17
2019-04-05T01:51:23.946Z,61.70
2019-04-05T01:53:54.626Z,59.37
2019-04-05T01:56:25.490Z,59.93
2019-04-05T01:58:56.172Z,56.43
2019-04-05T02:01:26.994Z,60.13
2019-04-05T02:03:57.668Z,57.67
2019-04-05T02:06:28.532Z,63.60
2019-04-05T02:08:59.212Z,60.63
2019-04-05T02:11:49.214Z,60.17
2019-04-05T02:14:20.062Z,58.90
2019-04-05T02:16:50.745Z,67.10
2019-04-05T02:19:21.345Z,61.70
2019-04-05T02:21:52.161Z,63.60
2019-04-05T02:24:24.379Z,62.20
2019-04-05T02:26:55.141Z,66.30
2019-04-05T02:29:25.756Z,63.87
2019-04-05T02:31:56.436Z,63.33
2019-04-05T02:34:27.012Z,66.83
2019-04-05T02:36:57.792Z,67.77
2019-04-05T02:39:28.757Z,68.00
2019-04-05T02:42:02.672Z,71.97
2019-04-05T02:44:34.793Z,71.57
2019-04-05T02:47:05.586Z,67.97
2019-04-05T02:49:36.564Z,62.47
2019-04-05T02:52:14.450Z,69.03
2019-04-05T02:54:46.432Z,68.47
2019-04-05T02:57:18.178Z,70.70
2019-04-05T02:59:49.091Z,72.30
2019-04-05T03:02:20.209Z,71.83
2019-04-05T03:04:51.190Z,73.20
2019-04-05T03:07:22.328Z,68.60
2019-04-05T03:09:52.907Z,71.80
2019-04-05T03:12:23.992Z,64.30
2019-04-05T03:14:55.001Z,70.30
2019-04-05T03:17:26.911Z,69.80
2019-04-05T03:20:07.188Z,70.87
2019-04-05T03:22:38.583Z,70.90
2019-04-05T03:25:11.870Z,75.47
2019-04-05T03:27:45.200Z,75.57
2019-04-05T03:30:16.026Z,72.90
2019-04-05T03:32:46.845Z,69.27
2019-04-05T03:35:26.037Z,78.77
2019-04-05T03:37:56.607Z,73.60
2019-04-05T03:40:27.811Z,77.97
2019-04-05T03:42:59.004Z,80.10
2019-04-05T03:45:32.802Z,77.27
2019-04-05T03:48:05.255Z,74.23
2019-04-05T03:50:36.207Z,78.00
2019-04-05T03:53:07.156Z,81.73
2019-04-05T03:55:38.283Z,79.63
2019-04-05T03:58:09.096Z,71.77
2019-04-05T04:00:46.465Z,78.17
2019-04-05T04:03:20.344Z,74.60
2019-04-05T04:05:55.628Z,77.00
2019-04-05T04:08:29.680Z,76.10
2019-04-05T04:11:05.005Z,68.63
2019-04-05T04:13:40.665Z,77.80
2019-04-05T04:16:15.084Z,78.00
2019-04-05T04:18:49.844Z,69.40
2019-04-05T04:22:07.006Z,69.53
2019-04-05T04:24:38.776Z,69.20
2019-04-05T04:27:09.607Z,73.17
2019-04-05T04:29:41.477Z,72.70
2019-04-05T04:32:15.407Z,70.27
2019-04-05T04:35:17.521Z,75.77
2019-04-05T04:38:12.678Z,70.30
2019-04-05T04:40:46.302Z,74.13
2019-04-05T04:43:17.359Z,66.07
2019-04-05T04:45:48.312Z,73.20
2019-04-05T04:48:19.138Z,63.93
2019-04-05T04:50:50.280Z,60.73
2019-04-05T04:53:21.160Z,64.77
2019-04-05T04:55:52.251Z,66.50
2019-04-05T04:58:22.853Z,65.53
2019-04-05T05:00:53.901Z,67.23
2019-04-05T05:03:24.414Z,60.13
2019-04-05T05:05:55.476Z,59.60
2019-04-05T05:08:26.256Z,60.67
2019-04-05T05:10:58.366Z,67.07
2019-04-05T05:13:31.709Z,62.90
2019-04-05T05:16:11.609Z,59.27
2019-04-05T05:18:51.601Z,55.33
2019-04-05T05:21:23.191Z,56.63
2019-04-05T05:23:59.924Z,53.60
2019-04-05T05:26:32.154Z,63.03
2019-04-05T05:29:02.881Z,61.73
2019-04-05T05:31:33.527Z,59.47
2019-04-05T05:34:04.302Z,57.00
2019-04-05T05:36:35.485Z,60.17
2019-04-05T05:39:08.504Z,57.43
2019-04-05T05:41:39.021Z,51.10
2019-04-05T05:44:12.509Z,52.90
2019-04-05T05:46:43.084Z,58.20
2019-04-05T05:49:13.542Z,57.70
2019-04-05T05:51:50.930Z,56.30
2019-04-05T05:54:23.030Z,58.37
2019-04-05T05:56:53.634Z,58.17
2019-04-05T05:59:29.691Z,56.03
2019-04-05T06:02:01.233Z,54.03
2019-04-05T06:04:31.744Z,57.00
2019-04-05T06:07:04.106Z,53.83
2019-04-05T06:09:36.276Z,54.63
2019-04-05T06:12:06.844Z,59.10
2019-04-05T06:14:39.699Z,56.73
2019-04-05T06:17:11.213Z,56.60
2019-04-05T06:19:43.188Z,56.33
2019-04-05T06:22:16.524Z,52.80
2019-04-05T06:24:47.039Z,54.00
2019-04-05T06:27:20.825Z,52.23
2019-04-05T06:29:53.964Z,53.37
2019-04-05T06:32:28.984Z,50.83
2019-04-05T06:35:02.405Z,46.60
2019-04-05T06:37:33.016Z,47.77
2019-04-05T06:40:04.699Z,53.47
2019-04-05T06:42:35.319Z,48.70
2019-04-05T06:45:06.648Z,50.10
2019-04-05T06:47:38.937Z,51.80
2019-04-05T06:50:11.802Z,51.27
2019-04-05T06:52:47.652Z,55.83
2019-04-05T06:55:20.138Z,51.27
2019-04-05T06:57:58.918Z,53.27
2019-04-05T07:00:30.671Z,56.10
2019-04-05T07:03:03.061Z,54.60
2019-04-05T07:05:40.664Z,57.07
2019-04-05T07:08:11.462Z,54.70
2019-04-05T07:10:45.369Z,55.03
2019-04-05T07:13:18.839Z,49.20
2019-04-05T07:15:57.311Z,53.13
2019-04-05T07:18:35.620Z,51.53
2019-04-05T07:21:02.834Z,55.63
2019-04-05T07:23:33.431Z,55.33
2019-04-05T07:26:08.050Z,60.17
2019-04-05T07:28:43.172Z,57.10
2019-04-05T07:31:19.842Z,56.73
2019-04-05T07:33:56.244Z,60.17
2019-04-05T07:36:33.246Z,62.13
2019-04-05T07:39:11.268Z,63.30
2019-04-05T07:41:48.140Z,64.63
2019-04-05T07:44:19.781Z,65.60
2019-04-05T07:47:08.512Z,69.33
2019-04-05T07:49:40.501Z,69.43
2019-04-05T07:52:25.749Z,71.07
2019-04-05T07:55:00.629Z,77.97
2019-04-05T07:57:33.023Z,80.30
2019-04-05T08:00:23.277Z,87.17
2019-04-05T08:02:57.412Z,78.43
2019-04-05T08:05:28.440Z,63.37
2019-04-05T08:08:04.548Z,64.43
2019-04-05T08:10:41.033Z,63.40
2019-04-05T08:13:14.965Z,60.87
2019-04-05T08:15:47.738Z,58.47
2019-04-05T08:18:22.201Z,55.67
2019-04-05T08:20:53.167Z,61.20
2019-04-05T08:23:26.907Z,50.13
2019-04-05T08:26:00.887Z,58.53
2019-04-05T08:28:33.120Z,59.23
2019-04-05T08:31:05.407Z,53.77
2019-04-05T08:33:36.645Z,55.07
2019-04-05T08:36:08.610Z,56.20
2019-04-05T08:38:40.316Z,56.20
2019-04-05T08:41:12.315Z,48.47
2019-04-05T08:43:48.405Z,53.27
2019-04-05T08:46:19.034Z,53.77
2019-04-05T08:48:52.426Z,50.57
2019-04-05T08:51:22.359Z,50.43
2019-04-05T08:53:54.737Z,51.97
2019-04-05T08:56:29.749Z,54.00
2019-04-05T08:59:00.689Z,61.73
2019-04-05T09:01:38.603Z,50.07
2019-04-05T09:04:13.925Z,46.60
2019-04-05T09:06:44.764Z,50.00
2019-04-05T09:09:17.839Z,49.77
2019-04-05T09:11:51.248Z,49.47
2019-04-05T09:14:37.836Z,50.40
2019-04-05T09:17:31.261Z,53.47
2019-04-05T09:20:00.133Z,52.10
2019-04-05T09:22:32.152Z,52.03
2019-04-05T09:25:07.199Z,57.20
2019-04-05T09:27:42.052Z,60.13
2019-04-05T09:30:32.926Z,59.83
2019-04-05T09:33:14.949Z,54.87
2019-04-05T09:35:48.988Z,65.87
2019-04-05T09:38:21.398Z,61.90
2019-04-05T09:40:53.155Z,56.40
2019-04-05T09:43:27.945Z,54.70
2019-04-05T09:46:05.229Z,54.60
2019-04-05T09:48:37.464Z,67.40
2019-04-05T09:51:08.097Z,54.83
2019-04-05T09:53:39.296Z,60.37
2019-04-05T09:56:12.548Z,57.80
2019-04-05T09:58:49.296Z,59.20
2019-04-05T10:01:27.681Z,61.10
2019-04-05T10:06:54.270Z,57.17
2019-04-05T10:09:28.082Z,58.13
2019-04-05T10:12:01.364Z,62.53
2019-04-05T10:14:32.255Z,60.67
2019-04-05T10:17:08.120Z,60.87
2019-04-05T10:19:50.645Z,61.80
2019-04-05T10:22:27.440Z,57.37
2019-04-05T10:25:08.099Z,60.13
2019-04-05T10:27:38.818Z,63.97
2019-04-05T10:30:11.791Z,63.77
2019-04-05T10:32:48.796Z,57.10
2019-04-05T10:35:20.026Z,60.93
2019-04-05T10:37:54.216Z,68.67
2019-04-05T10:40:26.299Z,61.57
2019-04-05T10:42:58.445Z,58.97
2019-04-05T10:45:32.337Z,65.37
2019-04-05T10:48:04.208Z,63.50
2019-04-05T10:50:44.495Z,60.43
2019-04-05T10:53:23.319Z,57.07
2019-04-05T10:56:00.759Z,72.10
2019-04-05T10:58:47.100Z,63.47
2019-04-05T11:01:24.687Z,62.70
2019-04-05T11:03:57.220Z,59.70
2019-04-05T11:06:34.097Z,57.60
2019-04-05T11:09:11.700Z,62.90
2019-04-05T11:11:42.297Z,55.70
2019-04-05T11:14:14.152Z,57.40
2019-04-05T11:16:57.831Z,57.00
2019-04-05T11:19:21.287Z,53.37
2019-04-05T11:21:55.203Z,58.07
2019-04-05T11:24:28.017Z,59.30
2019-04-05T11:27:06.645Z,55.00
2019-04-05T11:29:39.622Z,54.57
2019-04-05T11:32:11.521Z,54.80
2019-04-05T11:34:42.185Z,59.57
2019-04-05T11:37:13.039Z,53.30
2019-04-05T11:39:48.619Z,61.10
2019-04-05T11:42:21.174Z,62.87
2019-04-05T11:45:00.712Z,56.17
2019-04-05T11:47:35.160Z,61.97
2019-04-05T11:50:10.774Z,59.50
2019-04-05T11:53:02.302Z,63.87
2019-04-05T11:55:47.048Z,64.00
2019-04-05T11:58:21.194Z,53.80
2019-04-05T12:01:23.676Z,60.30
2019-04-05T12:03:55.510Z,60.20
2019-04-05T12:06:28.753Z,56.37
2019-04-05T12:09:01.330Z,61.07
2019-04-05T12:11:41.699Z,65.63
2019-04-05T12:14:30.767Z,63.27
2019-04-05T12:17:05.263Z,62.40
2019-04-05T12:19:38.006Z,58.90
2019-04-05T12:22:09.389Z,63.80
2019-04-05T12:24:40.544Z,67.40
2019-04-05T12:27:16.056Z,66.40
2019-04-05T12:29:46.605Z,62.80
2019-04-05T12:32:18.898Z,60.47
2019-04-05T12:35:04.323Z,66.87
2019-04-05T12:37:58.147Z,73.17
2019-04-05T12:40:34.699Z,62.40
2019-04-05T12:43:06.174Z,63.80
2019-04-05T12:45:37.412Z,72.80
2019-04-05T12:48:08.144Z,66.37
2019-04-05T12:50:44.723Z,71.37
2019-04-05T12:53:17.201Z,70.07
2019-04-05T12:55:49.463Z,73.40
2019-04-05T12:58:25.525Z,79.07
2019-04-05T13:00:59.609Z,73.23
2019-04-05T13:03:30.258Z,70.13
2019-04-05T13:06:01.356Z,78.17
2019-04-05T13:08:38.108Z,71.23
2019-04-05T13:11:11.309Z,83.53
2019-04-05T13:13:49.236Z,79.30
2019-04-05T13:16:23.639Z,81.17
2019-04-05T13:18:54.841Z,78.87
2019-04-05T13:21:49.180Z,77.13
2019-04-05T13:24:24.189Z,77.33
2019-04-05T13:26:54.843Z,77.20
2019-04-05T13:29:28.256Z,80.43
2019-04-05T13:32:05.727Z,74.10
2019-04-05T13:34:36.522Z,75.63
2019-04-05T13:37:20.129Z,70.77
2019-04-05T13:39:54.026Z,75.57
2019-04-05T13:42:35.424Z,73.77
2019-04-05T13:45:14.864Z,75.60
2019-04-05T13:47:45.836Z,76.40
2019-04-05T13:50:21.498Z,72.87
2019-04-05T13:52:55.875Z,69.30
2019-04-05T13:55:26.746Z,82.23
2019-04-05T13:58:00.722Z,74.60
2019-04-05T14:00:31.783Z,71.30
2019-04-05T14:03:09.116Z,82.20
2019-04-05T14:05:43.806Z,82.50
2019-04-05T14:08:20.465Z,78.87
2019-04-05T14:11:16.245Z,72.40
2019-04-05T14:13:50.567Z,75.57
2019-04-05T14:16:25.538Z,76.93
2019-04-05T14:18:58.016Z,79.73
2019-04-05T14:21:47.319Z,75.30
2019-04-05T14:24:21.452Z,77.67
2019-04-05T14:27:10.591Z,80.93
2019-04-05T14:29:39.457Z,86.43
2019-04-05T14:32:20.387Z,80.33
2019-04-05T14:34:46.680Z,81.67
2019-04-05T14:37:26.129Z,81.27
2019-04-05T14:40:00.685Z,72.83
2019-04-05T14:42:42.634Z,80.73
2019-04-05T14:45:20.194Z,89.73
2019-04-05T14:47:57.622Z,82.80
2019-04-05T14:50:29.079Z,88.50
2019-04-05T14:53:02.155Z,80.30
2019-04-05T14:55:33.424Z,76.73
2019-04-05T14:58:14.980Z,83.93
2019-04-05T15:00:49.436Z,80.37
2019-04-05T15:03:27.438Z,83.83
2019-04-05T15:06:03.771Z,89.40
2019-04-05T15:08:52.099Z,87.90
2019-04-05T15:11:31.087Z,84.73
2019-04-05T15:14:06.359Z,78.23
2019-04-05T15:16:49.891Z,84.97
2019-04-05T15:19:29.357Z,81.60
2019-04-05T15:22:05.937Z,84.80
2019-04-05T15:24:48.371Z,79.10
2019-04-05T15:27:22.261Z,87.27
2019-04-05T15:30:17.541Z,81.30
2019-04-05T15:32:57.765Z,84.20
2019-04-05T15:35:28.279Z,81.93
2019-04-05T15:38:02.070Z,79.27
2019-04-05T15:40:35.686Z,81.57
2019-04-05T15:43:06.385Z,80.77
2019-04-05T15:45:47.253Z,75.17
2019-04-05T15:48:20.475Z,85.43
2019-04-05T15:50:59.291Z,82.53
2019-04-05T15:53:33.560Z,77.60
2019-04-05T15:56:04.851Z,83.57
2019-04-05T15:58:38.143Z,75.93
2019-04-05T16:01:11.218Z,75.77
2019-04-05T16:03:42.946Z,83.17
2019-04-05T16:06:13.627Z,86.13
2019-04-05T16:08:49.051Z,78.30
2019-04-05T16:11:19.766Z,79.27
2019-04-05T16:13:52.805Z,77.20
2019-04-05T16:16:24.396Z,77.43
2019-04-05T16:18:58.086Z,71.87
2019-04-05T16:21:31.098Z,77.00
2019-04-05T16:24:05.123Z,71.97
2019-04-05T16:26:39.023Z,77.57
2019-04-05T16:29:09.908Z,77.97
2019-04-05T16:31:42.777Z,72.27
2019-04-05T16:34:27.212Z,76.83
2019-04-05T16:37:00.099Z,74.63
2019-04-05T16:39:45.579Z,78.80
2019-04-05T16:42:26.072Z,78.47
2019-04-05T16:45:03.217Z,74.10
2019-04-05T16:47:40.745Z,77.17
2019-04-05T16:50:31.852Z,71.73
2019-04-05T16:53:05.403Z,73.00
2019-04-05T16:55:41.279Z,69.47
2019-04-05T16:58:13.628Z,69.40
2019-04-05T17:00:44.492Z,78.83
2019-04-05T17:03:29.678Z,75.63
2019-04-05T17:06:00.275Z,69.73
2019-04-05T17:08:45.595Z,74.13
2019-04-05T17:11:19.179Z,76.47
2019-04-05T17:13:49.986Z,79.57
2019-04-05T17:16:23.169Z,74.63
2019-04-05T17:18:56.370Z,78.30
2019-04-05T17:21:27.309Z,75.77
2019-04-05T17:24:18.074Z,75.53
2019-04-05T17:26:54.299Z,74.23
2019-04-05T17:29:25.042Z,72.57
2019-04-05T17:32:14.437Z,75.10
2019-04-05T17:34:43.289Z,76.70
2019-04-05T17:37:31.823Z,76.37
2019-04-05T17:40:09.570Z,73.30
2019-04-05T17:42:44.817Z,72.77
2019-04-05T17:45:28.560Z,82.30
2019-04-05T17:47:59.155Z,74.77
2019-04-05T17:50:33.540Z,74.93
2019-04-05T17:53:12.613Z,78.17
2019-04-05T17:55:45.241Z,74.93
2019-04-05T17:58:23.219Z,75.00
2019-04-05T18:00:56.786Z,77.13
2019-04-05T18:03:31.597Z,78.47
2019-04-05T18:06:03.900Z,81.40
2019-04-05T18:08:37.756Z,80.90
2019-04-05T18:11:15.674Z,78.33
2019-04-05T18:13:46.291Z,80.50
2019-04-05T18:16:23.999Z,78.47
2019-04-05T18:18:52.470Z,75.77
2019-04-05T18:21:24.799Z,79.13
2019-04-05T18:23:55.402Z,76.30
2019-04-05T18:26:26.654Z,82.27
2019-04-05T18:28:58.938Z,78.60
2019-04-05T18:31:37.391Z,90.37
2019-04-05T18:34:08.035Z,75.97
2019-04-05T18:36:41.662Z,78.53
2019-04-05T18:39:12.722Z,85.23
2019-04-05T18:41:44.753Z,79.63
2019-04-05T18:44:15.444Z,80.73
2019-04-05T18:46:50.120Z,85.10
2019-04-05T18:49:21.387Z,84.47
2019-04-05T18:51:53.902Z,80.90
2019-04-05T18:54:25.979Z,84.13
2019-04-05T18:56:59.449Z,84.07
2019-04-05T18:59:30.110Z,81.10
2019-04-05T19:02:03.093Z,81.67
2019-04-05T19:04:34.114Z,80.10
2019-04-05T19:07:09.414Z,76.83
2019-04-05T19:09:40.291Z,86.83
2019-04-05T19:12:14.227Z,88.40
2019-04-05T19:14:48.462Z,85.07
2019-04-05T19:17:24.871Z,80.03
2019-04-05T19:19:55.550Z,75.27
2019-04-05T19:22:27.473Z,79.00
2019-04-05T19:24:58.218Z,80.93
2019-04-05T19:27:36.093Z,82.20
2019-04-05T19:48:30.929Z,83.53
2019-04-05T19:50:48.042Z,84.50
2019-04-05T19:53:21.871Z,89.60
2019-04-05T19:55:53.801Z,83.63
2019-04-05T19:58:27.412Z,81.23
2019-04-05T20:01:01.133Z,85.73
2019-04-05T20:03:34.477Z,79.60
2019-04-05T20:06:16.163Z,82.87
2019-04-05T20:09:11.500Z,81.40
2019-04-05T20:11:47.168Z,82.47
2019-04-05T20:14:19.844Z,79.93
2019-04-05T20:16:50.890Z,90.27
2019-04-05T20:19:33.732Z,82.37
2019-04-05T20:22:20.447Z,89.20
2019-04-05T20:24:51.379Z,94.77
2019-04-05T20:27:21.951Z,90.03
2019-04-05T20:29:55.048Z,78.73
2019-04-05T20:32:27.466Z,92.30
2019-04-05T20:35:03.936Z,87.47
2019-04-05T20:37:40.178Z,87.37
2019-04-05T20:40:20.141Z,85.57
2019-04-05T20:42:51.080Z,76.70
2019-04-05T20:45:22.053Z,76.47
2019-04-05T20:47:58.319Z,81.50
2019-04-05T20:50:41.201Z,75.27
2019-04-05T20:53:12.575Z,78.87
2019-04-05T20:55:44.755Z,81.63
2019-04-05T20:58:23.634Z,78.93
2019-04-05T21:00:59.434Z,82.30
2019-04-05T21:03:30.168Z,81.90
2019-04-05T21:06:01.546Z,89.90
2019-04-05T21:08:33.477Z,85.00
2019-04-05T21:11:14.294Z,83.43
2019-04-05T21:13:46.129Z,77.13
2019-04-05T21:16:25.224Z,80.77
2019-04-05T21:19:05.029Z,87.90
2019-04-05T21:21:39.964Z,83.50
2019-04-05T21:24:12.319Z,83.87
2019-04-05T21:26:43.182Z,80.20
2019-04-05T21:29:15.408Z,85.50
2019-04-05T21:31:50.002Z,84.17
2019-04-05T21:34:33.928Z,84.87
2019-04-05T21:37:07.529Z,81.30
2019-04-05T21:39:39.927Z,83.43
2019-04-05T21:42:12.477Z,77.23
2019-04-05T21:44:47.700Z,76.67
2019-04-05T21:47:18.377Z,73.53
2019-04-05T21:49:55.856Z,77.10
2019-04-05T21:52:33.021Z,71.93
2019-04-05T21:55:04.370Z,79.33
2019-04-05T21:57:54.090Z,73.97
2019-04-05T22:00:28.453Z,77.43
2019-04-05T22:03:00.721Z,77.70
2019-04-05T22:05:35.679Z,73.47
2019-04-05T22:08:06.459Z,83.70
2019-04-05T22:10:43.146Z,74.73
2019-04-05T22:13:28.396Z,81.87
2019-04-05T22:15:59.046Z,72.30
2019-04-05T22:18:33.947Z,77.00
2019-04-05T22:21:05.675Z,73.60
2019-04-05T22:23:37.406Z,74.67
2019-04-05T22:26:10.777Z,78.67
2019-04-05T22:28:41.872Z,76.20
2019-04-05T22:31:12.625Z,82.53
2019-04-05T22:33:46.550Z,73.43
2019-04-05T22:36:17.478Z,71.40
2019-04-05T22:38:49.563Z,78.83
2019-04-05T22:41:20.434Z,76.43
2019-04-05T22:43:51.233Z,77.33
2019-04-05T22:46:23.554Z,84.80
2019-04-05T22:48:57.500Z,82.63
2019-04-05T22:51:31.104Z,78.30
2019-04-05T22:54:01.607Z,80.53
2019-04-05T22:56:36.467Z,81.23
2019-04-05T22:59:12.677Z,76.77
2019-04-05T23:01:47.184Z,76.33
2019-04-05T23:04:17.686Z,70.53
2019-04-05T23:06:55.937Z,72.50
2019-04-05T23:09:27.982Z,79.00
2019-04-05T23:12:02.533Z,66.77
2019-04-05T23:14:35.487Z,79.23
2019-04-05T23:17:27.837Z,83.37
2019-04-05T23:19:58.523Z,81.13
2019-04-05T23:22:32.295Z,71.23
2019-04-05T23:25:02.845Z,75.77
2019-04-05T23:27:35.799Z,74.87
2019-04-05T23:30:14.222Z,71.87
2019-04-05T23:32:44.876Z,70.23
2019-04-05T23:35:15.455Z,77.13
2019-04-05T23:37:46.434Z,77.83
2019-04-05T23:40:17.117Z,90.33
2019-04-05T23:42:47.721Z,84.37
2019-04-05T23:45:20.757Z,82.07
2019-04-05T23:47:51.405Z,68.77
2019-04-05T23:50:22.012Z,67.40
2019-04-05T23:52:52.641Z,64.97
2019-04-05T23:55:32.722Z,77.77
2019-04-05T23:58:13.120Z,71.77
